sensor_id;sensor_type;location;lat;lon;timestamp;temperature;humidity
81800;DHT22;71195;52.528;5.704;2023-11-21T00:01:37;10.20;71.50
81800;DHT22;71195;52.528;5.704;2023-11-21T00:04:06;10.20;71.50
81800;DHT22;71195;52.528;5.704;2023-11-21T00:06:38;10.20;71.50
81800;DHT22;71195;52.528;5.704;2023-11-21T00:09:07;10.20;71.50
81800;DHT22;71195;52.528;5.704;2023-11-21T00:11:39;10.20;71.50
81800;DHT22;71195;52.528;5.704;2023-11-21T00:14:08;10.20;71.50
81800;DHT22;71195;52.528;5.704;2023-11-21T00:16:37;10.20;71.60
81800;DHT22;71195;52.528;5.704;2023-11-21T00:19:06;10.20;71.50
81800;DHT22;71195;52.528;5.704;2023-11-21T00:21:38;10.20;71.50
81800;DHT22;71195;52.528;5.704;2023-11-21T00:24:10;10.20;71.50
81800;DHT22;71195;52.528;5.704;2023-11-21T00:26:40;10.20;71.40
81800;DHT22;71195;52.528;5.704;2023-11-21T00:29:09;10.20;71.50
81800;DHT22;71195;52.528;5.704;2023-11-21T00:31:38;10.20;71.50
81800;DHT22;71195;52.528;5.704;2023-11-21T00:34:07;10.10;71.70
81800;DHT22;71195;52.528;5.704;2023-11-21T00:36:39;10.10;71.70
81800;DHT22;71195;52.528;5.704;2023-11-21T00:39:08;10.10;71.80
81800;DHT22;71195;52.528;5.704;2023-11-21T00:41:38;10.10;71.80
81800;DHT22;71195;52.528;5.704;2023-11-21T00:44:08;10.20;71.80
81800;DHT22;71195;52.528;5.704;2023-11-21T00:46:37;10.20;71.80
81800;DHT22;71195;52.528;5.704;2023-11-21T00:49:06;10.20;71.70
81800;DHT22;71195;52.528;5.704;2023-11-21T00:51:35;10.20;71.70
81800;DHT22;71195;52.528;5.704;2023-11-21T00:54:08;10.20;71.70
81800;DHT22;71195;52.528;5.704;2023-11-21T00:56:38;10.30;71.70
81800;DHT22;71195;52.528;5.704;2023-11-21T00:59:07;10.30;71.70
81800;DHT22;71195;52.528;5.704;2023-11-21T01:01:36;10.30;71.70
81800;DHT22;71195;52.528;5.704;2023-11-21T01:04:06;10.30;71.70
81800;DHT22;71195;52.528;5.704;2023-11-21T01:06:35;10.30;71.70
81800;DHT22;71195;52.528;5.704;2023-11-21T01:09:05;10.30;71.70
81800;DHT22;71195;52.528;5.704;2023-11-21T01:11:37;10.30;71.70
81800;DHT22;71195;52.528;5.704;2023-11-21T01:14:06;10.30;71.80
81800;DHT22;71195;52.528;5.704;2023-11-21T01:16:36;10.30;71.80
81800;DHT22;71195;52.528;5.704;2023-11-21T01:19:05;10.30;71.70
81800;DHT22;71195;52.528;5.704;2023-11-21T01:21:35;10.30;71.60
81800;DHT22;71195;52.528;5.704;2023-11-21T01:24:05;10.40;71.60
81800;DHT22;71195;52.528;5.704;2023-11-21T01:26:37;10.40;71.60
81800;DHT22;71195;52.528;5.704;2023-11-21T01:29:06;10.40;71.50
81800;DHT22;71195;52.528;5.704;2023-11-21T01:31:35;10.30;71.60
81800;DHT22;71195;52.528;5.704;2023-11-21T01:34:06;10.40;71.70
81800;DHT22;71195;52.528;5.704;2023-11-21T01:36:35;10.30;71.70
81800;DHT22;71195;52.528;5.704;2023-11-21T01:39:05;10.30;71.70
81800;DHT22;71195;52.528;5.704;2023-11-21T01:41:37;10.30;71.70
81800;DHT22;71195;52.528;5.704;2023-11-21T01:44:06;10.30;71.90
81800;DHT22;71195;52.528;5.704;2023-11-21T01:46:36;10.30;71.90
81800;DHT22;71195;52.528;5.704;2023-11-21T01:49:05;10.30;71.90
81800;DHT22;71195;52.528;5.704;2023-11-21T01:51:36;10.30;71.90
81800;DHT22;71195;52.528;5.704;2023-11-21T01:54:06;10.30;71.90
81800;DHT22;71195;52.528;5.704;2023-11-21T01:56:40;10.40;71.90
81800;DHT22;71195;52.528;5.704;2023-11-21T01:59:10;10.40;71.80
81800;DHT22;71195;52.528;5.704;2023-11-21T02:01:39;10.40;71.70
81800;DHT22;71195;52.528;5.704;2023-11-21T02:04:08;10.40;71.70
81800;DHT22;71195;52.528;5.704;2023-11-21T02:06:38;10.40;71.80
81800;DHT22;71195;52.528;5.704;2023-11-21T02:09:07;10.40;71.70
81800;DHT22;71195;52.528;5.704;2023-11-21T02:11:36;10.50;71.70
81800;DHT22;71195;52.528;5.704;2023-11-21T02:14:08;10.50;71.80
81800;DHT22;71195;52.528;5.704;2023-11-21T02:16:37;10.50;71.70
81800;DHT22;71195;52.528;5.704;2023-11-21T02:19:07;10.50;71.70
81800;DHT22;71195;52.528;5.704;2023-11-21T02:21:40;10.50;71.70
81800;DHT22;71195;52.528;5.704;2023-11-21T02:24:13;10.50;71.80
81800;DHT22;71195;52.528;5.704;2023-11-21T02:26:43;10.50;71.70
81800;DHT22;71195;52.528;5.704;2023-11-21T02:29:13;10.50;71.70
81800;DHT22;71195;52.528;5.704;2023-11-21T02:31:46;10.50;71.70
81800;DHT22;71195;52.528;5.704;2023-11-21T02:34:18;10.50;71.60
81800;DHT22;71195;52.528;5.704;2023-11-21T02:36:47;10.60;71.60
81800;DHT22;71195;52.528;5.704;2023-11-21T02:39:19;10.60;71.60
81800;DHT22;71195;52.528;5.704;2023-11-21T02:41:50;10.60;71.60
81800;DHT22;71195;52.528;5.704;2023-11-21T02:44:19;10.60;71.60
81800;DHT22;71195;52.528;5.704;2023-11-21T02:46:49;10.60;71.60
81800;DHT22;71195;52.528;5.704;2023-11-21T02:49:18;10.60;71.70
81800;DHT22;71195;52.528;5.704;2023-11-21T02:51:47;10.60;71.60
81800;DHT22;71195;52.528;5.704;2023-11-21T02:54:19;10.60;71.70
81800;DHT22;71195;52.528;5.704;2023-11-21T02:56:48;10.60;71.60
81800;DHT22;71195;52.528;5.704;2023-11-21T02:59:17;10.60;71.70
81800;DHT22;71195;52.528;5.704;2023-11-21T03:01:46;10.60;71.70
81800;DHT22;71195;52.528;5.704;2023-11-21T03:04:15;10.60;71.60
81800;DHT22;71195;52.528;5.704;2023-11-21T03:06:45;10.70;71.60
81800;DHT22;71195;52.528;5.704;2023-11-21T03:09:15;10.70;71.60
81800;DHT22;71195;52.528;5.704;2023-11-21T03:11:47;10.70;71.60
81800;DHT22;71195;52.528;5.704;2023-11-21T03:14:16;10.70;71.50
81800;DHT22;71195;52.528;5.704;2023-11-21T03:16:46;10.70;71.60
81800;DHT22;71195;52.528;5.704;2023-11-21T03:19:15;10.70;71.60
81800;DHT22;71195;52.528;5.704;2023-11-21T03:21:44;10.70;71.70
81800;DHT22;71195;52.528;5.704;2023-11-21T03:24:13;10.70;71.70
81800;DHT22;71195;52.528;5.704;2023-11-21T03:26:47;10.60;71.90
81800;DHT22;71195;52.528;5.704;2023-11-21T03:29:18;10.60;71.80
81800;DHT22;71195;52.528;5.704;2023-11-21T03:31:47;10.60;71.90
81800;DHT22;71195;52.528;5.704;2023-11-21T03:34:24;10.60;71.90
81800;DHT22;71195;52.528;5.704;2023-11-21T03:36:55;10.70;71.90
81800;DHT22;71195;52.528;5.704;2023-11-21T03:39:24;10.70;71.80
81800;DHT22;71195;52.528;5.704;2023-11-21T03:41:58;10.70;71.80
81800;DHT22;71195;52.528;5.704;2023-11-21T03:44:27;10.60;72.00
81800;DHT22;71195;52.528;5.704;2023-11-21T03:46:56;10.60;72.00
81800;DHT22;71195;52.528;5.704;2023-11-21T03:49:25;10.60;72.10
81800;DHT22;71195;52.528;5.704;2023-11-21T03:51:56;10.60;72.00
81800;DHT22;71195;52.528;5.704;2023-11-21T03:54:25;10.60;71.90
81800;DHT22;71195;52.528;5.704;2023-11-21T03:56:54;10.60;72.00
81800;DHT22;71195;52.528;5.704;2023-11-21T03:59:26;10.60;72.10
81800;DHT22;71195;52.528;5.704;2023-11-21T04:01:55;10.60;72.20
81800;DHT22;71195;52.528;5.704;2023-11-21T04:04:25;10.60;72.10
81800;DHT22;71195;52.528;5.704;2023-11-21T04:06:54;10.60;72.10
81800;DHT22;71195;52.528;5.704;2023-11-21T04:09:23;10.60;72.10
81800;DHT22;71195;52.528;5.704;2023-11-21T04:11:52;10.60;72.20
81800;DHT22;71195;52.528;5.704;2023-11-21T04:14:22;10.60;72.20
81800;DHT22;71195;52.528;5.704;2023-11-21T04:16:54;10.60;72.30
81800;DHT22;71195;52.528;5.704;2023-11-21T04:19:23;10.60;72.20
81800;DHT22;71195;52.528;5.704;2023-11-21T04:21:52;10.60;72.20
81800;DHT22;71195;52.528;5.704;2023-11-21T04:24:21;10.70;72.10
81800;DHT22;71195;52.528;5.704;2023-11-21T04:26:50;10.70;72.10
81800;DHT22;71195;52.528;5.704;2023-11-21T04:29:20;10.70;72.10
81800;DHT22;71195;52.528;5.704;2023-11-21T04:31:49;10.70;72.20
81800;DHT22;71195;52.528;5.704;2023-11-21T04:34:20;10.70;72.10
81800;DHT22;71195;52.528;5.704;2023-11-21T04:36:49;10.80;72.20
81800;DHT22;71195;52.528;5.704;2023-11-21T04:39:19;10.80;72.20
81800;DHT22;71195;52.528;5.704;2023-11-21T04:41:48;10.80;72.20
81800;DHT22;71195;52.528;5.704;2023-11-21T04:44:17;10.80;72.20
81800;DHT22;71195;52.528;5.704;2023-11-21T04:46:46;10.80;72.20
81800;DHT22;71195;52.528;5.704;2023-11-21T04:49:15;10.90;72.20
81800;DHT22;71195;52.528;5.704;2023-11-21T04:51:47;10.90;72.00
81800;DHT22;71195;52.528;5.704;2023-11-21T04:54:16;11.00;72.00
81800;DHT22;71195;52.528;5.704;2023-11-21T04:56:45;11.00;72.00
81800;DHT22;71195;52.528;5.704;2023-11-21T04:59:14;11.00;72.00
81800;DHT22;71195;52.528;5.704;2023-11-21T05:01:44;11.00;71.90
81800;DHT22;71195;52.528;5.704;2023-11-21T05:04:13;11.00;71.90
81800;DHT22;71195;52.528;5.704;2023-11-21T05:06:42;11.10;71.90
81800;DHT22;71195;52.528;5.704;2023-11-21T05:09:15;11.10;71.80
81800;DHT22;71195;52.528;5.704;2023-11-21T05:11:44;11.10;71.80
81800;DHT22;71195;52.528;5.704;2023-11-21T05:14:13;11.10;71.90
81800;DHT22;71195;52.528;5.704;2023-11-21T05:16:43;11.10;71.80
81800;DHT22;71195;52.528;5.704;2023-11-21T05:19:12;11.10;72.00
81800;DHT22;71195;52.528;5.704;2023-11-21T05:21:41;11.10;72.00
81800;DHT22;71195;52.528;5.704;2023-11-21T05:24:10;11.20;72.00
81800;DHT22;71195;52.528;5.704;2023-11-21T05:26:42;11.20;71.90
81800;DHT22;71195;52.528;5.704;2023-11-21T05:29:11;11.20;72.10
81800;DHT22;71195;52.528;5.704;2023-11-21T05:31:40;11.20;72.00
81800;DHT22;71195;52.528;5.704;2023-11-21T05:34:09;11.30;72.00
81800;DHT22;71195;52.528;5.704;2023-11-21T05:36:38;11.30;72.00
81800;DHT22;71195;52.528;5.704;2023-11-21T05:39:07;11.30;72.00
81800;DHT22;71195;52.528;5.704;2023-11-21T05:41:37;11.40;72.00
81800;DHT22;71195;52.528;5.704;2023-11-21T05:44:09;11.40;71.90
81800;DHT22;71195;52.528;5.704;2023-11-21T05:46:40;11.40;71.90
81800;DHT22;71195;52.528;5.704;2023-11-21T05:49:10;11.40;71.90
81800;DHT22;71195;52.528;5.704;2023-11-21T05:51:39;11.50;72.00
81800;DHT22;71195;52.528;5.704;2023-11-21T05:54:08;11.50;71.90
81800;DHT22;71195;52.528;5.704;2023-11-21T05:56:37;11.50;71.90
81800;DHT22;71195;52.528;5.704;2023-11-21T05:59:09;11.50;71.90
81800;DHT22;71195;52.528;5.704;2023-11-21T06:01:38;11.50;71.90
81800;DHT22;71195;52.528;5.704;2023-11-21T06:04:07;11.50;72.00
81800;DHT22;71195;52.528;5.704;2023-11-21T06:06:37;11.50;71.90
81800;DHT22;71195;52.528;5.704;2023-11-21T06:09:06;11.50;71.90
81800;DHT22;71195;52.528;5.704;2023-11-21T06:11:35;11.50;72.00
81800;DHT22;71195;52.528;5.704;2023-11-21T06:14:04;11.50;72.10
81800;DHT22;71195;52.528;5.704;2023-11-21T06:16:38;11.50;72.00
81800;DHT22;71195;52.528;5.704;2023-11-21T06:19:07;11.50;72.10
81800;DHT22;71195;52.528;5.704;2023-11-21T06:21:36;11.50;72.20
81800;DHT22;71195;52.528;5.704;2023-11-21T06:24:07;11.50;72.20
81800;DHT22;71195;52.528;5.704;2023-11-21T06:26:36;11.50;72.30
81800;DHT22;71195;52.528;5.704;2023-11-21T06:29:05;11.50;72.40
81800;DHT22;71195;52.528;5.704;2023-11-21T06:31:34;11.60;72.40
81800;DHT22;71195;52.528;5.704;2023-11-21T06:34:06;11.60;72.50
81800;DHT22;71195;52.528;5.704;2023-11-21T06:36:36;11.70;72.50
81800;DHT22;71195;52.528;5.704;2023-11-21T06:39:05;11.70;72.50
81800;DHT22;71195;52.528;5.704;2023-11-21T06:41:35;11.70;72.50
81800;DHT22;71195;52.528;5.704;2023-11-21T06:44:05;11.70;72.60
81800;DHT22;71195;52.528;5.704;2023-11-21T06:46:34;11.70;72.50
81800;DHT22;71195;52.528;5.704;2023-11-21T06:49:07;11.80;72.50
81800;DHT22;71195;52.528;5.704;2023-11-21T06:51:36;11.80;72.60
81800;DHT22;71195;52.528;5.704;2023-11-21T06:54:06;11.90;72.60
81800;DHT22;71195;52.528;5.704;2023-11-21T06:56:35;11.90;72.60
81800;DHT22;71195;52.528;5.704;2023-11-21T06:59:05;11.90;72.60
81800;DHT22;71195;52.528;5.704;2023-11-21T07:01:35;11.90;72.60
81800;DHT22;71195;52.528;5.704;2023-11-21T07:04:08;11.90;72.60
81800;DHT22;71195;52.528;5.704;2023-11-21T07:06:37;11.90;72.60
81800;DHT22;71195;52.528;5.704;2023-11-21T07:09:06;11.90;72.60
81800;DHT22;71195;52.528;5.704;2023-11-21T07:11:36;11.90;72.60
81800;DHT22;71195;52.528;5.704;2023-11-21T07:14:05;11.90;72.70
81800;DHT22;71195;52.528;5.704;2023-11-21T07:16:35;11.90;72.80
81800;DHT22;71195;52.528;5.704;2023-11-21T07:19:07;11.90;72.90
81800;DHT22;71195;52.528;5.704;2023-11-21T07:21:36;11.90;73.00
81800;DHT22;71195;52.528;5.704;2023-11-21T07:24:07;11.90;73.00
81800;DHT22;71195;52.528;5.704;2023-11-21T07:26:37;11.90;72.90
81800;DHT22;71195;52.528;5.704;2023-11-21T07:29:06;11.90;72.90
81800;DHT22;71195;52.528;5.704;2023-11-21T07:31:37;12.00;72.80
81800;DHT22;71195;52.528;5.704;2023-11-21T07:34:10;12.00;72.80
81800;DHT22;71195;52.528;5.704;2023-11-21T07:36:39;12.00;72.80
81800;DHT22;71195;52.528;5.704;2023-11-21T07:39:08;12.00;72.80
81800;DHT22;71195;52.528;5.704;2023-11-21T07:41:37;11.90;73.00
81800;DHT22;71195;52.528;5.704;2023-11-21T07:44:11;11.90;73.00
81800;DHT22;71195;52.528;5.704;2023-11-21T07:46:40;11.90;73.10
81800;DHT22;71195;52.528;5.704;2023-11-21T07:49:12;11.90;73.10
81800;DHT22;71195;52.528;5.704;2023-11-21T07:51:42;11.90;73.10
81800;DHT22;71195;52.528;5.704;2023-11-21T07:54:11;11.90;73.10
81800;DHT22;71195;52.528;5.704;2023-11-21T07:56:40;11.90;73.00
81800;DHT22;71195;52.528;5.704;2023-11-21T07:59:09;11.90;73.10
81800;DHT22;71195;52.528;5.704;2023-11-21T08:01:38;11.90;73.00
81800;DHT22;71195;52.528;5.704;2023-11-21T08:04:12;11.90;73.20
81800;DHT22;71195;52.528;5.704;2023-11-21T08:06:41;11.90;73.20
81800;DHT22;71195;52.528;5.704;2023-11-21T08:09:10;11.90;73.10
81800;DHT22;71195;52.528;5.704;2023-11-21T08:11:39;11.90;73.10
81800;DHT22;71195;52.528;5.704;2023-11-21T08:14:08;11.90;73.10
81800;DHT22;71195;52.528;5.704;2023-11-21T08:16:37;12.00;73.00
81800;DHT22;71195;52.528;5.704;2023-11-21T08:19:06;12.00;73.00
81800;DHT22;71195;52.528;5.704;2023-11-21T08:21:38;12.00;72.90
81800;DHT22;71195;52.528;5.704;2023-11-21T08:24:08;12.10;72.90
81800;DHT22;71195;52.528;5.704;2023-11-21T08:26:38;12.00;73.00
81800;DHT22;71195;52.528;5.704;2023-11-21T08:29:07;12.00;73.00
81800;DHT22;71195;52.528;5.704;2023-11-21T08:31:36;12.00;73.00
81800;DHT22;71195;52.528;5.704;2023-11-21T08:34:05;12.10;72.90
81800;DHT22;71195;52.528;5.704;2023-11-21T08:36:34;12.10;72.80
81800;DHT22;71195;52.528;5.704;2023-11-21T08:39:06;12.10;72.80
81800;DHT22;71195;52.528;5.704;2023-11-21T08:41:35;12.10;72.80
81800;DHT22;71195;52.528;5.704;2023-11-21T08:44:05;12.10;72.90
81800;DHT22;71195;52.528;5.704;2023-11-21T08:46:35;12.10;72.90
81800;DHT22;71195;52.528;5.704;2023-11-21T08:49:06;12.10;72.90
81800;DHT22;71195;52.528;5.704;2023-11-21T08:51:35;12.10;72.90
81800;DHT22;71195;52.528;5.704;2023-11-21T08:54:07;12.10;72.90
81800;DHT22;71195;52.528;5.704;2023-11-21T08:56:38;12.10;72.90
81800;DHT22;71195;52.528;5.704;2023-11-21T08:59:07;12.00;72.90
81800;DHT22;71195;52.528;5.704;2023-11-21T09:01:36;12.00;72.90
81800;DHT22;71195;52.528;5.704;2023-11-21T09:04:05;12.00;73.00
81800;DHT22;71195;52.528;5.704;2023-11-21T09:06:35;12.00;73.00
81800;DHT22;71195;52.528;5.704;2023-11-21T09:09:06;12.00;73.00
81800;DHT22;71195;52.528;5.704;2023-11-21T09:11:36;12.00;73.00
81800;DHT22;71195;52.528;5.704;2023-11-21T09:14:05;12.00;72.90
81800;DHT22;71195;52.528;5.704;2023-11-21T09:16:36;12.00;72.90
81800;DHT22;71195;52.528;5.704;2023-11-21T09:19:05;12.00;72.90
81800;DHT22;71195;52.528;5.704;2023-11-21T09:21:34;12.00;72.90
81800;DHT22;71195;52.528;5.704;2023-11-21T09:24:07;12.00;73.00
81800;DHT22;71195;52.528;5.704;2023-11-21T09:26:37;11.90;73.00
81800;DHT22;71195;52.528;5.704;2023-11-21T09:29:06;12.00;73.00
81800;DHT22;71195;52.528;5.704;2023-11-21T09:31:35;12.00;72.90
81800;DHT22;71195;52.528;5.704;2023-11-21T09:34:04;12.00;72.90
81800;DHT22;71195;52.528;5.704;2023-11-21T09:36:33;12.00;72.90
81800;DHT22;71195;52.528;5.704;2023-11-21T09:39:08;12.00;73.00
81800;DHT22;71195;52.528;5.704;2023-11-21T09:41:40;12.00;72.80
81800;DHT22;71195;52.528;5.704;2023-11-21T09:44:13;12.00;72.70
81800;DHT22;71195;52.528;5.704;2023-11-21T09:46:48;12.00;72.70
81800;DHT22;71195;52.528;5.704;2023-11-21T09:49:23;12.00;72.60
81800;DHT22;71195;52.528;5.704;2023-11-21T09:51:55;12.10;72.60
81800;DHT22;71195;52.528;5.704;2023-11-21T09:54:28;12.00;72.60
81800;DHT22;71195;52.528;5.704;2023-11-21T09:56:57;12.00;72.60
81800;DHT22;71195;52.528;5.704;2023-11-21T09:59:30;12.00;72.60
81800;DHT22;71195;52.528;5.704;2023-11-21T10:02:00;12.00;72.60
81800;DHT22;71195;52.528;5.704;2023-11-21T10:04:31;12.10;72.50
81800;DHT22;71195;52.528;5.704;2023-11-21T10:07:00;12.10;72.60
81800;DHT22;71195;52.528;5.704;2023-11-21T10:09:33;12.10;72.60
81800;DHT22;71195;52.528;5.704;2023-11-21T10:12:04;12.10;72.60
81800;DHT22;71195;52.528;5.704;2023-11-21T10:14:37;12.00;72.60
81800;DHT22;71195;52.528;5.704;2023-11-21T10:17:10;12.00;72.60
81800;DHT22;71195;52.528;5.704;2023-11-21T10:19:42;12.00;72.60
81800;DHT22;71195;52.528;5.704;2023-11-21T10:22:12;12.00;72.60
81800;DHT22;71195;52.528;5.704;2023-11-21T10:24:46;12.00;72.80
81800;DHT22;71195;52.528;5.704;2023-11-21T10:27:15;12.00;72.80
81800;DHT22;71195;52.528;5.704;2023-11-21T10:29:44;12.00;72.80
81800;DHT22;71195;52.528;5.704;2023-11-21T10:32:14;12.00;72.70
81800;DHT22;71195;52.528;5.704;2023-11-21T10:34:55;12.00;72.70
81800;DHT22;71195;52.528;5.704;2023-11-21T10:37:25;11.90;72.70
81800;DHT22;71195;52.528;5.704;2023-11-21T10:40:00;11.90;72.80
81800;DHT22;71195;52.528;5.704;2023-11-21T10:42:32;12.00;72.70
81800;DHT22;71195;52.528;5.704;2023-11-21T10:45:03;12.00;72.60
81800;DHT22;71195;52.528;5.704;2023-11-21T10:47:38;12.10;72.50
81800;DHT22;71195;52.528;5.704;2023-11-21T10:50:08;12.10;72.50
81800;DHT22;71195;52.528;5.704;2023-11-21T10:52:39;12.10;72.50
81800;DHT22;71195;52.528;5.704;2023-11-21T10:55:19;12.10;72.50
81800;DHT22;71195;52.528;5.704;2023-11-21T10:57:53;12.20;72.30
81800;DHT22;71195;52.528;5.704;2023-11-21T11:00:22;12.30;72.30
81800;DHT22;71195;52.528;5.704;2023-11-21T11:02:53;12.30;72.30
81800;DHT22;71195;52.528;5.704;2023-11-21T11:05:23;12.30;72.20
81800;DHT22;71195;52.528;5.704;2023-11-21T11:08:00;12.30;72.40
81800;DHT22;71195;52.528;5.704;2023-11-21T11:10:35;12.20;72.40
81800;DHT22;71195;52.528;5.704;2023-11-21T11:13:06;12.20;72.50
81800;DHT22;71195;52.528;5.704;2023-11-21T11:15:35;12.20;72.60
81800;DHT22;71195;52.528;5.704;2023-11-21T11:18:05;12.20;72.60
81800;DHT22;71195;52.528;5.704;2023-11-21T11:20:37;12.10;72.70
81800;DHT22;71195;52.528;5.704;2023-11-21T11:23:25;12.10;72.80
81800;DHT22;71195;52.528;5.704;2023-11-21T11:26:09;12.10;72.80
81800;DHT22;71195;52.528;5.704;2023-11-21T11:28:47;12.10;72.70
81800;DHT22;71195;52.528;5.704;2023-11-21T11:31:27;12.10;72.60
81800;DHT22;71195;52.528;5.704;2023-11-21T11:34:08;12.20;72.60
81800;DHT22;71195;52.528;5.704;2023-11-21T11:36:47;12.30;72.50
81800;DHT22;71195;52.528;5.704;2023-11-21T11:39:30;12.30;72.40
81800;DHT22;71195;52.528;5.704;2023-11-21T11:42:04;12.30;72.40
81800;DHT22;71195;52.528;5.704;2023-11-21T11:44:49;12.30;72.40
81800;DHT22;71195;52.528;5.704;2023-11-21T11:47:23;12.30;72.30
81800;DHT22;71195;52.528;5.704;2023-11-21T11:50:01;12.20;72.40
81800;DHT22;71195;52.528;5.704;2023-11-21T11:52:39;12.20;72.50
81800;DHT22;71195;52.528;5.704;2023-11-21T11:55:10;12.20;72.50
81800;DHT22;71195;52.528;5.704;2023-11-21T11:57:43;12.20;72.50
81800;DHT22;71195;52.528;5.704;2023-11-21T12:00:17;12.10;72.60
81800;DHT22;71195;52.528;5.704;2023-11-21T12:02:52;12.10;72.50
81800;DHT22;71195;52.528;5.704;2023-11-21T12:05:23;12.10;72.60
81800;DHT22;71195;52.528;5.704;2023-11-21T12:07:54;12.10;72.60
81800;DHT22;71195;52.528;5.704;2023-11-21T12:10:25;12.10;72.60
81800;DHT22;71195;52.528;5.704;2023-11-21T12:12:58;12.10;72.60
81800;DHT22;71195;52.528;5.704;2023-11-21T12:15:27;12.10;72.50
81800;DHT22;71195;52.528;5.704;2023-11-21T12:17:57;12.10;72.50
81800;DHT22;71195;52.528;5.704;2023-11-21T12:20:28;12.10;72.50
81800;DHT22;71195;52.528;5.704;2023-11-21T12:22:58;12.10;72.40
81800;DHT22;71195;52.528;5.704;2023-11-21T12:25:29;12.10;72.50
81800;DHT22;71195;52.528;5.704;2023-11-21T12:28:02;12.10;72.50
81800;DHT22;71195;52.528;5.704;2023-11-21T12:30:37;12.10;72.50
81800;DHT22;71195;52.528;5.704;2023-11-21T12:33:06;12.10;72.50
81800;DHT22;71195;52.528;5.704;2023-11-21T12:35:36;12.10;72.50
81800;DHT22;71195;52.528;5.704;2023-11-21T12:38:05;12.10;72.50
81800;DHT22;71195;52.528;5.704;2023-11-21T12:40:35;12.00;72.50
81800;DHT22;71195;52.528;5.704;2023-11-21T12:43:07;12.00;72.50
81800;DHT22;71195;52.528;5.704;2023-11-21T12:45:36;12.00;72.60
81800;DHT22;71195;52.528;5.704;2023-11-21T12:48:06;12.00;72.50
81800;DHT22;71195;52.528;5.704;2023-11-21T12:50:38;12.00;72.50
81800;DHT22;71195;52.528;5.704;2023-11-21T12:53:09;11.90;72.50
81800;DHT22;71195;52.528;5.704;2023-11-21T12:55:38;12.00;72.40
81800;DHT22;71195;52.528;5.704;2023-11-21T12:58:11;11.90;72.40
81800;DHT22;71195;52.528;5.704;2023-11-21T13:00:42;11.90;72.40
81800;DHT22;71195;52.528;5.704;2023-11-21T13:03:13;11.90;72.40
81800;DHT22;71195;52.528;5.704;2023-11-21T13:05:49;11.90;72.30
81800;DHT22;71195;52.528;5.704;2023-11-21T13:08:21;11.90;72.20
81800;DHT22;71195;52.528;5.704;2023-11-21T13:10:52;11.90;72.10
81800;DHT22;71195;52.528;5.704;2023-11-21T13:13:25;11.90;72.20
81800;DHT22;71195;52.528;5.704;2023-11-21T13:16:00;11.90;72.10
81800;DHT22;71195;52.528;5.704;2023-11-21T13:18:30;11.90;72.10
81800;DHT22;71195;52.528;5.704;2023-11-21T13:21:03;11.90;72.00
81800;DHT22;71195;52.528;5.704;2023-11-21T13:23:37;11.80;72.10
81800;DHT22;71195;52.528;5.704;2023-11-21T13:26:07;11.70;72.20
81800;DHT22;71195;52.528;5.704;2023-11-21T13:28:40;11.70;72.10
81800;DHT22;71195;52.528;5.704;2023-11-21T13:31:12;11.70;72.00
81800;DHT22;71195;52.528;5.704;2023-11-21T13:33:53;11.70;72.00
81800;DHT22;71195;52.528;5.704;2023-11-21T13:36:31;11.70;72.00
81800;DHT22;71195;52.528;5.704;2023-11-21T13:39:01;11.70;72.00
81800;DHT22;71195;52.528;5.704;2023-11-21T13:41:33;11.70;72.00
81800;DHT22;71195;52.528;5.704;2023-11-21T13:44:07;11.60;71.90
81800;DHT22;71195;52.528;5.704;2023-11-21T13:46:42;11.50;72.10
81800;DHT22;71195;52.528;5.704;2023-11-21T13:49:12;11.50;72.00
81800;DHT22;71195;52.528;5.704;2023-11-21T13:51:42;11.50;72.00
81800;DHT22;71195;52.528;5.704;2023-11-21T13:54:14;11.50;72.00
81800;DHT22;71195;52.528;5.704;2023-11-21T13:56:46;11.40;72.00
81800;DHT22;71195;52.528;5.704;2023-11-21T13:59:19;11.40;71.90
81800;DHT22;71195;52.528;5.704;2023-11-21T14:01:51;11.40;71.90
81800;DHT22;71195;52.528;5.704;2023-11-21T14:04:26;11.40;71.80
81800;DHT22;71195;52.528;5.704;2023-11-21T14:07:19;11.50;71.60
81800;DHT22;71195;52.528;5.704;2023-11-21T14:09:53;11.50;71.50
81800;DHT22;71195;52.528;5.704;2023-11-21T14:12:24;11.70;71.30
81800;DHT22;71195;52.528;5.704;2023-11-21T14:15:00;11.70;71.10
81800;DHT22;71195;52.528;5.704;2023-11-21T14:17:31;11.70;71.10
81800;DHT22;71195;52.528;5.704;2023-11-21T14:20:08;11.70;71.10
81800;DHT22;71195;52.528;5.704;2023-11-21T14:22:42;11.60;71.00
81800;DHT22;71195;52.528;5.704;2023-11-21T14:25:11;11.50;71.10
81800;DHT22;71195;52.528;5.704;2023-11-21T14:27:43;11.40;71.20
81800;DHT22;71195;52.528;5.704;2023-11-21T14:30:15;11.40;71.30
81800;DHT22;71195;52.528;5.704;2023-11-21T14:32:49;11.30;71.30
81800;DHT22;71195;52.528;5.704;2023-11-21T14:35:20;11.20;71.40
81800;DHT22;71195;52.528;5.704;2023-11-21T14:37:49;11.10;71.40
81800;DHT22;71195;52.528;5.704;2023-11-21T14:40:18;11.10;71.40
81800;DHT22;71195;52.528;5.704;2023-11-21T14:42:50;11.10;71.40
81800;DHT22;71195;52.528;5.704;2023-11-21T14:45:26;11.00;71.50
81800;DHT22;71195;52.528;5.704;2023-11-21T14:47:56;11.00;71.30
81800;DHT22;71195;52.528;5.704;2023-11-21T14:50:33;11.00;71.30
81800;DHT22;71195;52.528;5.704;2023-11-21T14:53:18;11.00;71.40
81800;DHT22;71195;52.528;5.704;2023-11-21T14:56:06;10.90;71.30
81800;DHT22;71195;52.528;5.704;2023-11-21T14:58:35;10.90;71.20
81800;DHT22;71195;52.528;5.704;2023-11-21T15:01:07;10.80;71.10
81800;DHT22;71195;52.528;5.704;2023-11-21T15:03:37;10.80;71.10
81800;DHT22;71195;52.528;5.704;2023-11-21T15:06:16;10.70;71.10
81800;DHT22;71195;52.528;5.704;2023-11-21T15:08:54;10.70;71.10
81800;DHT22;71195;52.528;5.704;2023-11-21T15:11:36;10.60;71.10
81800;DHT22;71195;52.528;5.704;2023-11-21T15:14:05;10.50;71.20
81800;DHT22;71195;52.528;5.704;2023-11-21T15:16:37;10.40;71.20
81800;DHT22;71195;52.528;5.704;2023-11-21T15:19:09;10.40;71.20
81800;DHT22;71195;52.528;5.704;2023-11-21T15:21:44;10.30;71.30
81800;DHT22;71195;52.528;5.704;2023-11-21T15:24:13;10.20;71.30
81800;DHT22;71195;52.528;5.704;2023-11-21T15:26:42;10.20;71.20
81800;DHT22;71195;52.528;5.704;2023-11-21T15:29:11;10.20;71.10
81800;DHT22;71195;52.528;5.704;2023-11-21T15:31:43;10.10;71.10
81800;DHT22;71195;52.528;5.704;2023-11-21T15:34:14;10.10;71.00
81800;DHT22;71195;52.528;5.704;2023-11-21T15:36:44;10.00;70.90
81800;DHT22;71195;52.528;5.704;2023-11-21T15:39:14;10.00;70.80
81800;DHT22;71195;52.528;5.704;2023-11-21T15:41:44;10.00;70.90
81800;DHT22;71195;52.528;5.704;2023-11-21T15:44:13;9.90;70.90
81800;DHT22;71195;52.528;5.704;2023-11-21T15:46:45;9.80;70.80
81800;DHT22;71195;52.528;5.704;2023-11-21T15:49:22;9.80;70.80
81800;DHT22;71195;52.528;5.704;2023-11-21T15:51:53;9.80;70.80
81800;DHT22;71195;52.528;5.704;2023-11-21T15:54:26;9.70;70.80